North Warren, Pennsylvania
Current Conditions -  °F | °C
As of 11:53 AM on Sunday 21 Dec 2014 (Local Time) from KBFD Reporting Station
Overcast Overcast  
Wind Chill: 26°   Ceiling: 1100
Heat Index: 26°   Visibility: 8mi
Dew Point: 20°   Wind: 3mph
Humidity: 78%   Direction: 320°NW
Pressure: 30.23"   Gusts: NA
Location:  41.8164°N, 79.1025°W
Report Text: KBFD 211653Z AUTO 32003KT 8SM OVC011 M03/M07 A3023 RMK AO2 SLP264 T10331067
Loading
Personal Weather Stations






























Interactive Weather Map New forecast layout! Learn more

10-Day Weather Forecast

Advertisements
Track Severe Weather on mobile